Terminal Aerodrome Forecast
Issued by NWS Houston/Galveston TX

Home | Current Version | Previous Version | Text Only | Print | Product List | Glossary On
Versions: 1 2 3 4 5 6 7 8 9 10 11 12 13 14 15 16 17 18 19 20 21 22 23 24 25 26 27 28 29 30 31 32 33 34 35 36 37 38 39 40 41 42 43 44 45 46 47 48 49
000
FTUS44 KHGX 061203 AAA
TAFHOU
TAF AMD
KHOU 061203Z 0612/0712 29008KT P6SM VCTS SCT040CB BKN090
      TEMPO 0612/0613 29025KT 4SM -TSRA BR BKN035CB OVC080
     FM061300 29008KT P6SM BKN050
     FM061600 30015G25KT P6SM SCT050 SCT250
     FM062200 33011G19KT P6SM SCT040
     FM070000 36007KT P6SM SKC
     FM070400 VRB02KT P6SM SKC=

USA.gov is the U.S. government's official web portal to all federal, state and local government web resources and services.